Time;durP1;ratioP1;P1;durP2;ratioP2;P2;SDS_P1;SDS_P2;PMS_P1;PMS_P2;Temp;Humidity;BMP_temperature;BMP_pressure;BME280_temperature;BME280_humidity;BME280_pressure;Samples;Min_cycle;Max_cycle;Signal;HPM_P1;HPM_P2
2024/04/05 00:01:28;;;;;;;29.08;7.25;;;11.60;99.90;;;;;;4971474;28;20046;-81
2024/04/05 00:03:55;;;;;;;29.90;7.15;;;11.70;99.90;;;;;;5002226;28;20046;-80
2024/04/05 00:06:21;;;;;;;28.58;7.00;;;11.60;99.90;;;;;;4973156;28;20042;-80
2024/04/05 00:08:47;;;;;;;25.33;7.25;;;11.60;99.90;;;;;;4973871;28;20049;-80
2024/04/05 00:11:12;;;;;;;26.17;6.07;;;11.60;99.90;;;;;;4987687;28;20061;-79
2024/04/05 00:13:38;;;;;;;33.88;6.78;;;11.60;99.90;;;;;;4972155;28;20454;-79
2024/04/05 00:16:05;;;;;;;26.85;6.35;;;11.60;99.90;;;;;;4967852;28;20046;-79
2024/04/05 00:18:34;;;;;;;27.73;6.40;;;11.60;99.90;;;;;;5002775;28;20050;-79
2024/04/05 00:21:04;;;;;;;31.37;6.07;;;11.60;99.90;;;;;;4979671;28;20046;-80
2024/04/05 00:23:31;;;;;;;26.25;6.50;;;11.60;99.90;;;;;;5020423;28;20498;-80
2024/04/05 00:26:01;;;;;;;27.55;5.82;;;11.50;99.90;;;;;;4997790;28;20133;-80
2024/04/05 00:28:30;;;;;;;27.60;6.88;;;11.50;99.90;;;;;;4985669;28;20054;-79
2024/04/05 00:30:56;;;;;;;28.50;6.75;;;11.40;99.90;;;;;;4981284;28;20116;-79
2024/04/05 00:33:22;;;;;;;29.25;6.30;;;11.40;99.90;;;;;;4988285;28;20437;-79
2024/04/05 00:35:52;;;;;;;28.50;6.38;;;11.50;99.90;;;;;;4985669;28;20515;-81
2024/04/05 00:38:18;;;;;;;;;;;11.40;99.90;;;;;;4985788;28;20050;-80
2024/04/05 00:40:45;;;;;;;29.40;6.35;;;11.40;99.90;;;;;;4971889;28;19932;-80
2024/04/05 00:43:11;;;;;;;24.35;5.70;;;11.40;99.90;;;;;;4957603;28;20108;-80
2024/04/05 00:45:41;;;;;;;27.10;6.05;;;11.40;99.90;;;;;;5000105;28;20053;-80
2024/04/05 00:48:08;;;;;;;25.17;5.03;;;11.40;99.90;;;;;;4990825;28;20399;-79
2024/04/05 00:50:36;;;;;;;25.80;5.78;;;11.40;99.90;;;;;;4996771;28;20048;-79
2024/04/05 00:53:04;;;;;;;23.58;5.18;;;11.40;99.90;;;;;;5004788;28;20097;-80
2024/04/05 00:55:31;;;;;;;26.15;6.57;;;11.40;99.90;;;;;;4960617;28;20058;-80
2024/04/05 00:58:01;;;;;;;22.90;4.93;;;11.30;99.90;;;;;;5011131;28;20045;-80
2024/04/05 01:00:31;;;;;;;25.77;6.00;;;11.30;99.90;;;;;;5000829;28;20061;-80
2024/04/05 01:02:57;;;;;;;28.42;6.72;;;11.30;99.90;;;;;;4987759;28;20058;-79
2024/04/05 01:05:23;;;;;;;27.38;6.20;;;11.20;99.90;;;;;;5009535;28;20140;-80
2024/04/05 01:07:50;;;;;;;24.38;6.00;;;11.30;99.90;;;;;;4972666;28;20052;-81
2024/04/05 01:10:16;;;;;;;21.27;4.97;;;11.20;99.90;;;;;;5006945;28;20054;-80
2024/04/05 01:12:42;;;;;;;31.73;7.07;;;11.20;99.90;;;;;;4993018;28;20514;-79
2024/04/05 01:15:08;;;;;;;29.90;6.40;;;11.10;99.90;;;;;;4975520;28;20039;-80
2024/04/05 01:17:35;;;;;;;27.27;6.05;;;11.10;99.90;;;;;;5017775;28;20034;-81
2024/04/05 01:20:06;;;;;;;23.98;5.65;;;11.00;99.90;;;;;;4980524;28;20125;-80
2024/04/05 01:22:45;;;;;;;24.23;6.60;;;11.10;99.90;;;;;;5014333;28;20825;-81
2024/04/05 01:25:10;;;;;;;29.17;6.80;;;11.00;99.90;;;;;;4971385;28;20121;-80
2024/04/05 01:27:36;;;;;;;27.45;5.38;;;11.00;99.90;;;;;;5006700;28;20181;-80
2024/04/05 01:30:02;;;;;;;24.98;6.45;;;11.00;99.90;;;;;;4981356;28;20148;-80
2024/04/05 01:32:28;;;;;;;26.70;5.70;;;10.90;99.90;;;;;;4987743;28;20065;-80
2024/04/05 01:34:53;;;;;;;25.95;5.85;;;10.90;99.90;;;;;;4994766;28;20747;-79
2024/04/05 01:37:20;;;;;;;27.23;6.03;;;11.00;99.90;;;;;;5015243;28;20049;-80
2024/04/05 01:39:46;;;;;;;29.25;7.22;;;11.00;99.90;;;;;;5006878;28;20050;-80
2024/04/05 01:42:12;;;;;;;29.55;6.93;;;11.00;99.90;;;;;;4959582;28;20046;-80
2024/04/05 01:44:38;;;;;;;24.45;6.22;;;11.00;99.90;;;;;;4962629;28;20060;-80
2024/04/05 01:47:03;;;;;;;24.15;6.60;;;11.00;99.90;;;;;;4984164;28;20050;-79
2024/04/05 01:49:29;;;;;;;25.30;5.47;;;11.00;99.90;;;;;;4972173;28;20050;-81
2024/04/05 01:51:55;;;;;;;23.70;5.75;;;11.10;99.90;;;;;;5010868;28;20053;-82
2024/04/05 01:54:21;;;;;;;25.00;6.15;;;11.10;99.90;;;;;;4966295;28;20058;-80
2024/04/05 01:56:47;;;;;;;23.65;6.22;;;11.10;99.90;;;;;;5018681;28;20122;-81
2024/04/05 01:59:14;;;;;;;26.33;5.82;;;11.10;99.90;;;;;;4969911;28;20121;-80
2024/04/05 02:01:40;;;;;;;27.58;6.28;;;11.10;99.90;;;;;;4985069;28;20054;-80
2024/04/05 02:04:05;;;;;;;28.63;7.25;;;11.10;99.90;;;;;;4967778;28;20042;-80
2024/04/05 02:06:35;;;;;;;26.95;5.45;;;11.10;99.90;;;;;;4962670;28;20124;-79
2024/04/05 02:09:00;;;;;;;28.57;6.53;;;11.10;99.90;;;;;;4996339;28;20034;-81
2024/04/05 02:11:26;;;;;;;26.80;6.30;;;11.10;99.90;;;;;;4969222;28;20569;-80
2024/04/05 02:13:52;;;;;;;30.17;6.47;;;11.00;99.90;;;;;;4968109;28;20093;-79
2024/04/05 02:16:18;;;;;;;29.10;6.68;;;11.10;99.90;;;;;;5025780;28;20064;-80
2024/04/05 02:18:45;;;;;;;27.63;6.40;;;11.00;99.90;;;;;;4989792;28;20053;-80
2024/04/05 02:21:11;;;;;;;26.75;6.18;;;11.00;99.90;;;;;;5010933;28;20051;-80
2024/04/05 02:23:37;;;;;;;25.25;6.35;;;11.00;99.90;;;;;;4984245;28;20495;-80
2024/04/05 02:26:03;;;;;;;29.92;6.35;;;10.90;99.90;;;;;;5001014;28;20567;-80
2024/04/05 02:28:29;;;;;;;28.33;6.65;;;11.00;99.90;;;;;;4981752;28;20054;-80
2024/04/05 02:30:55;;;;;;;27.50;6.35;;;11.00;99.90;;;;;;5011149;28;20047;-81
2024/04/05 02:33:20;;;;;;;24.73;6.72;;;11.00;99.90;;;;;;4980260;28;20100;-80
2024/04/05 02:35:46;;;;;;;28.55;6.97;;;11.00;99.90;;;;;;4966863;28;20133;-80
2024/04/05 02:38:12;;;;;;;27.10;6.32;;;11.10;99.90;;;;;;4982517;28;20057;-80
2024/04/05 02:40:38;;;;;;;24.92;6.45;;;11.10;99.90;;;;;;5010818;28;20050;-80
2024/04/05 02:43:04;;;;;;;28.30;6.95;;;11.10;99.90;;;;;;4971521;28;20050;-80
2024/04/05 02:45:30;;;;;;;28.30;7.32;;;11.10;99.90;;;;;;4978546;28;20054;-80
2024/04/05 02:47:56;;;;;;;26.45;6.75;;;11.10;99.90;;;;;;5008918;28;20101;-80
2024/04/05 02:50:22;;;;;;;26.48;6.57;;;11.10;99.90;;;;;;5020396;28;20439;-80
2024/04/05 02:52:48;;;;;;;29.45;6.65;;;11.10;99.90;;;;;;4977477;28;20038;-79
2024/04/05 02:55:13;;;;;;;30.50;6.53;;;11.10;99.90;;;;;;5014729;28;20049;-79
2024/04/05 02:57:39;;;;;;;32.53;7.28;;;11.10;99.90;;;;;;4984632;28;20042;-80
2024/04/05 03:00:05;;;;;;;24.58;6.10;;;11.10;99.90;;;;;;5014413;28;20080;-79
2024/04/05 03:02:31;;;;;;;26.25;7.03;;;11.20;99.90;;;;;;4969011;28;20427;-80
2024/04/05 03:04:57;;;;;;;26.02;6.25;;;11.10;99.90;;;;;;4979012;28;20042;-80
2024/04/05 03:07:23;;;;;;;29.63;7.15;;;11.10;99.90;;;;;;4965830;28;20046;-80
2024/04/05 03:09:48;;;;;;;27.10;7.30;;;11.10;99.90;;;;;;4968151;28;20046;-80
2024/04/05 03:12:14;;;;;;;34.33;7.18;;;11.10;99.90;;;;;;5007114;28;20042;-80
2024/04/05 03:14:40;;;;;;;26.98;6.80;;;11.20;99.90;;;;;;4991101;28;20050;-79
2024/04/05 03:17:07;;;;;;;31.35;7.07;;;11.10;99.90;;;;;;5014660;28;20043;-80
2024/04/05 03:19:33;;;;;;;25.95;7.18;;;11.10;99.90;;;;;;4998093;28;20104;-80
2024/04/05 03:21:58;;;;;;;31.25;7.82;;;11.20;99.90;;;;;;4980920;28;20042;-80
2024/04/05 03:24:24;;;;;;;30.13;6.85;;;11.10;99.90;;;;;;4971057;28;20040;-80
2024/04/05 03:26:50;;;;;;;32.90;7.82;;;11.10;99.90;;;;;;4972449;28;20100;-80
2024/04/05 03:29:16;;;;;;;27.45;7.22;;;11.20;99.90;;;;;;4970310;28;20042;-80
2024/04/05 03:31:42;;;;;;;29.88;6.03;;;11.20;99.90;;;;;;4999744;28;20129;-80
2024/04/05 03:34:08;;;;;;;28.02;6.68;;;11.30;99.90;;;;;;4968161;28;20145;-79
2024/04/05 03:36:33;;;;;;;25.20;6.75;;;11.20;99.90;;;;;;5009472;28;20085;-80
2024/04/05 03:39:01;;;;;;;24.65;6.45;;;11.30;99.90;;;;;;5011939;28;20053;-80
2024/04/05 03:41:30;;;;;;;26.15;6.50;;;11.30;99.90;;;;;;4984843;28;20529;-81
2024/04/05 03:43:55;;;;;;;24.65;6.47;;;11.30;99.90;;;;;;5018164;28;20045;-79
2024/04/05 03:46:22;;;;;;;26.48;6.43;;;11.30;99.90;;;;;;4979021;28;20516;-81
2024/04/05 03:48:48;;;;;;;27.40;6.75;;;11.40;99.90;;;;;;5013022;28;20057;-80
2024/04/05 03:51:13;;;;;;;24.08;5.70;;;11.40;99.90;;;;;;4965999;28;20153;-79
2024/04/05 03:53:39;;;;;;;23.45;5.80;;;11.40;99.90;;;;;;4971668;28;20054;-79
2024/04/05 03:56:05;;;;;;;22.48;6.13;;;11.40;99.90;;;;;;5022460;28;20439;-80
2024/04/05 03:58:31;;;;;;;28.35;6.35;;;11.40;99.90;;;;;;4967453;28;20506;-80
2024/04/05 04:00:57;;;;;;;22.20;5.63;;;11.40;99.90;;;;;;4975661;28;20049;-79
2024/04/05 04:03:23;;;;;;;18.38;5.05;;;11.40;99.90;;;;;;4973671;28;20053;-80
2024/04/05 04:05:49;;;;;;;22.27;6.25;;;11.40;99.90;;;;;;4990222;28;20495;-80
2024/04/05 04:08:15;;;;;;;27.65;5.97;;;11.40;99.90;;;;;;4986024;28;20050;-80
2024/04/05 04:10:42;;;;;;;22.42;5.55;;;11.40;99.90;;;;;;4973489;28;20060;-80
2024/04/05 04:13:08;;;;;;;22.50;5.85;;;11.40;99.90;;;;;;4983837;28;20045;-80
2024/04/05 04:15:34;;;;;;;20.80;5.78;;;11.40;99.90;;;;;;4970587;28;20042;-80
2024/04/05 04:18:01;;;;;;;23.17;5.50;;;11.40;99.90;;;;;;5017357;28;20046;-80
2024/04/05 04:20:27;;;;;;;22.95;5.45;;;11.40;99.90;;;;;;4974565;28;20077;-80
2024/04/05 04:22:52;;;;;;;23.55;6.05;;;11.40;99.90;;;;;;4971828;28;20128;-80
2024/04/05 04:25:18;;;;;;;21.88;6.13;;;11.40;99.90;;;;;;4984937;28;20048;-79
2024/04/05 04:27:44;;;;;;;24.20;6.20;;;11.40;99.90;;;;;;4971034;28;20046;-79
2024/04/05 04:30:10;;;;;;;20.88;5.45;;;11.40;99.90;;;;;;5018495;28;20046;-80
2024/04/05 04:32:36;;;;;;;24.80;5.40;;;11.40;99.90;;;;;;4985337;28;20046;-80
2024/04/05 04:35:03;;;;;;;26.17;6.35;;;11.40;99.90;;;;;;4977933;28;20046;-80
2024/04/05 04:37:29;;;;;;;31.05;7.10;;;11.40;99.90;;;;;;5002683;28;20042;-79
2024/04/05 04:39:55;;;;;;;22.35;6.28;;;11.30;99.90;;;;;;5022878;28;20451;-79
2024/04/05 04:42:20;;;;;;;31.15;7.20;;;11.30;99.90;;;;;;4965504;28;20121;-79
2024/04/05 04:44:47;;;;;;;31.25;6.93;;;11.30;99.90;;;;;;4997477;28;20037;-80
2024/04/05 04:47:13;;;;;;;23.23;5.68;;;11.30;99.90;;;;;;4975335;28;20394;-80
2024/04/05 04:49:39;;;;;;;31.48;7.15;;;11.30;99.90;;;;;;4984659;28;20137;-79
2024/04/05 04:52:05;;;;;;;31.02;6.97;;;11.30;99.90;;;;;;4974957;28;20058;-80
2024/04/05 04:54:31;;;;;;;26.88;6.25;;;11.30;99.90;;;;;;5024440;28;20585;-79
2024/04/05 04:56:56;;;;;;;28.33;6.78;;;11.20;99.90;;;;;;4971943;28;20042;-79
2024/04/05 04:59:29;;;;;;;29.52;6.78;;;11.20;99.90;;;;;;4978889;28;20057;-79
2024/04/05 05:01:56;;;;;;;28.58;7.20;;;11.30;99.90;;;;;;4993005;28;20053;-79
2024/04/05 05:04:22;;;;;;;30.40;7.20;;;11.30;99.90;;;;;;4984082;28;20038;-79
2024/04/05 05:06:49;;;;;;;26.48;6.55;;;11.20;99.90;;;;;;5007045;28;20250;-79
2024/04/05 05:09:15;;;;;;;26.25;7.03;;;11.20;99.90;;;;;;5022822;28;20085;-80
2024/04/05 05:11:42;;;;;;;29.45;6.95;;;11.20;99.90;;;;;;4999679;28;20152;-79
2024/04/05 05:14:09;;;;;;;28.95;6.07;;;11.20;99.90;;;;;;4956905;28;20525;-80
2024/04/05 05:16:37;;;;;;;23.77;6.63;;;11.20;99.90;;;;;;4972295;28;20080;-79
2024/04/05 05:19:04;;;;;;;24.70;7.07;;;11.20;99.90;;;;;;5021388;28;20133;-79
2024/04/05 05:21:32;;;;;;;28.55;7.07;;;11.20;99.90;;;;;;4984269;28;20053;-79
2024/04/05 05:23:58;;;;;;;35.13;7.70;;;11.30;99.90;;;;;;5006259;28;20508;-79
2024/04/05 05:26:24;;;;;;;29.60;8.23;;;11.20;99.90;;;;;;4971612;28;20046;-79
2024/04/05 05:28:49;;;;;;;31.52;8.02;;;11.20;99.90;;;;;;4971050;28;20482;-79
2024/04/05 05:31:15;;;;;;;26.80;7.00;;;11.20;99.90;;;;;;4977424;28;20054;-79
2024/04/05 05:33:41;;;;;;;27.30;7.30;;;11.20;99.90;;;;;;4984360;28;20050;-79
2024/04/05 05:36:10;;;;;;;26.63;7.13;;;11.20;99.90;;;;;;4985112;28;20070;-79
2024/04/05 05:38:35;;;;;;;29.80;7.85;;;11.20;99.90;;;;;;5013537;28;20046;-79
2024/04/05 05:41:02;;;;;;;30.30;6.95;;;11.30;99.90;;;;;;4967959;28;20123;-78
2024/04/05 05:43:28;;;;;;;27.25;6.65;;;11.20;99.90;;;;;;5004941;28;20457;-79
2024/04/05 05:45:54;;;;;;;26.80;7.38;;;11.30;99.90;;;;;;5008185;28;20042;-79
2024/04/05 05:48:19;;;;;;;29.42;7.95;;;11.20;99.90;;;;;;4986358;28;20533;-79
2024/04/05 05:50:45;;;;;;;27.55;6.72;;;11.30;99.90;;;;;;4988149;28;20042;-79
2024/04/05 05:53:11;;;;;;;28.27;7.05;;;11.30;99.90;;;;;;4982710;28;20048;-79
2024/04/05 05:55:36;;;;;;;26.58;6.75;;;11.30;99.90;;;;;;4968060;28;20585;-79
2024/04/05 05:58:03;;;;;;;27.67;6.00;;;11.30;99.90;;;;;;4968832;28;20921;-79
2024/04/05 06:00:29;;;;;;;29.95;7.10;;;11.30;99.90;;;;;;4968479;28;20045;-78
2024/04/05 06:02:56;;;;;;;26.08;6.93;;;11.30;99.90;;;;;;5004149;28;20145;-78
2024/04/05 06:05:23;;;;;;;24.60;6.82;;;11.30;99.90;;;;;;4968621;28;20586;-79
2024/04/05 06:07:52;;;;;;;29.02;7.65;;;11.40;99.90;;;;;;4986081;28;20049;-78
2024/04/05 06:10:18;;;;;;;26.58;7.15;;;11.40;99.90;;;;;;4984878;28;20042;-78
2024/04/05 06:12:44;;;;;;;26.95;6.93;;;11.40;99.90;;;;;;4984733;28;20513;-78
2024/04/05 06:15:10;;;;;;;29.58;6.85;;;11.40;99.90;;;;;;4968533;28;20050;-78
2024/04/05 06:17:36;;;;;;;24.70;6.68;;;11.50;99.90;;;;;;4983509;28;20057;-78
2024/04/05 06:20:06;;;;;;;26.42;6.80;;;11.40;99.90;;;;;;4971074;28;20046;-78
2024/04/05 06:22:33;;;;;;;;;;;11.50;99.90;;;;;;4971112;28;20048;-78
2024/04/05 06:24:58;;;;;;;24.83;7.05;;;11.50;99.90;;;;;;4970531;28;19929;-78
2024/04/05 06:27:24;;;;;;;27.63;7.32;;;11.50;99.90;;;;;;4983533;28;20117;-78
2024/04/05 06:29:56;;;;;;;26.73;7.45;;;11.50;99.90;;;;;;4984148;28;20410;-78
2024/04/05 06:32:23;;;;;;;22.27;6.53;;;11.50;99.90;;;;;;5014987;28;20116;-77
2024/04/05 06:34:55;;;;;;;24.85;7.22;;;11.60;99.90;;;;;;4972533;28;20096;-77
2024/04/05 06:37:25;;;;;;;27.48;6.55;;;11.60;99.90;;;;;;4983555;28;20117;-79
2024/04/05 06:39:53;;;;;;;27.60;6.82;;;11.60;99.90;;;;;;5008383;28;20125;-78
2024/04/05 06:42:20;;;;;;;25.70;6.50;;;11.60;99.90;;;;;;5007393;28;20093;-77
2024/04/05 06:44:50;;;;;;;24.30;6.70;;;11.70;99.90;;;;;;4984161;28;20177;-78
2024/04/05 06:47:15;;;;;;;25.20;7.20;;;11.70;99.90;;;;;;4996181;28;20046;-78
2024/04/05 06:49:41;;;;;;;23.60;6.35;;;11.70;99.90;;;;;;5006757;28;20495;-77
2024/04/05 06:52:08;;;;;;;24.60;7.13;;;11.80;99.90;;;;;;5008364;28;20034;-78
2024/04/05 06:54:35;;;;;;;25.70;6.95;;;11.80;99.90;;;;;;5010062;28;20057;-78
2024/04/05 06:57:02;;;;;;;28.13;7.50;;;11.90;99.90;;;;;;5001197;28;20741;-78
2024/04/05 06:59:32;;;;;;;24.08;6.68;;;11.90;99.90;;;;;;5005914;28;20050;-78
2024/04/05 07:01:58;;;;;;;22.27;6.50;;;11.90;99.90;;;;;;4966849;28;20119;-77
2024/04/05 07:04:25;;;;;;;21.92;6.88;;;12.00;99.90;;;;;;4984255;28;20046;-78
2024/04/05 07:06:51;;;;;;;20.92;6.85;;;12.00;99.90;;;;;;4976481;28;20045;-77
2024/04/05 07:09:20;;;;;;;21.60;6.40;;;12.10;99.90;;;;;;4974680;28;20184;-78
2024/04/05 07:11:49;;;;;;;22.35;6.82;;;12.10;99.90;;;;;;4980968;28;20054;-78
2024/04/05 07:14:17;;;;;;;26.45;7.90;;;12.20;99.90;;;;;;4966043;28;20077;-78
2024/04/05 07:16:47;;;;;;;18.48;6.70;;;12.20;99.90;;;;;;5015555;28;20164;-77
2024/04/05 07:19:14;;;;;;;24.50;7.45;;;12.30;99.90;;;;;;4959053;28;20046;-78
2024/04/05 07:21:39;;;;;;;20.25;6.82;;;12.20;99.90;;;;;;5017893;28;20053;-78
2024/04/05 07:24:06;;;;;;;21.35;6.90;;;12.30;99.90;;;;;;4979197;28;20049;-78
2024/04/05 07:26:32;;;;;;;20.35;6.78;;;12.40;99.90;;;;;;4981707;28;20057;-79
2024/04/05 07:28:58;;;;;;;21.17;7.20;;;12.40;99.90;;;;;;4991653;28;20423;-78
2024/04/05 07:31:24;;;;;;;20.90;6.85;;;12.50;99.90;;;;;;5007097;28;20418;-78
2024/04/05 07:33:50;;;;;;;18.52;7.55;;;12.60;99.90;;;;;;5006955;28;20049;-78
2024/04/05 07:36:17;;;;;;;23.83;7.93;;;12.60;99.90;;;;;;5008370;28;20033;-77
2024/04/05 07:38:45;;;;;;;17.85;6.50;;;12.70;99.90;;;;;;4991990;28;20409;-78
2024/04/05 07:41:11;;;;;;;22.60;6.95;;;12.70;99.90;;;;;;4976822;28;20046;-78
2024/04/05 07:43:37;;;;;;;22.08;7.53;;;12.80;99.90;;;;;;5019902;28;20609;-78
2024/04/05 07:46:03;;;;;;;22.90;6.65;;;12.80;99.90;;;;;;4969653;28;20045;-78
2024/04/05 07:48:31;;;;;;;18.58;6.90;;;12.90;99.90;;;;;;4997043;28;20046;-77
2024/04/05 07:50:58;;;;;;;19.15;6.72;;;12.90;99.90;;;;;;4963237;28;20523;-77
2024/04/05 07:53:25;;;;;;;17.45;6.72;;;13.00;99.90;;;;;;4969932;28;20037;-77
2024/04/05 07:55:51;;;;;;;18.13;6.47;;;13.00;99.90;;;;;;5016775;28;20053;-78
2024/04/05 07:58:18;;;;;;;19.05;6.80;;;13.10;99.90;;;;;;4983262;28;20045;-77
2024/04/05 08:00:44;;;;;;;15.50;6.05;;;13.20;99.90;;;;;;4971645;28;20103;-77
2024/04/05 08:03:10;;;;;;;18.38;6.63;;;13.30;99.90;;;;;;4982622;28;20049;-77
2024/04/05 08:05:36;;;;;;;16.55;5.65;;;13.40;99.90;;;;;;4971492;28;20432;-77
2024/04/05 08:08:06;;;;;;;18.42;6.78;;;13.40;99.90;;;;;;4982369;28;20077;-78
2024/04/05 08:10:31;;;;;;;19.55;6.38;;;13.50;99.90;;;;;;4985443;28;20756;-78
2024/04/05 08:12:58;;;;;;;16.45;5.80;;;13.60;99.90;;;;;;5023075;28;20148;-78
2024/04/05 08:15:24;;;;;;;14.50;5.85;;;13.60;99.90;;;;;;4985074;28;20038;-79
2024/04/05 08:17:50;;;;;;;15.23;6.07;;;13.70;99.90;;;;;;4990813;28;20077;-78
2024/04/05 08:20:16;;;;;;;16.08;6.15;;;13.70;99.90;;;;;;4986698;28;20101;-78
2024/04/05 08:22:42;;;;;;;16.45;5.90;;;13.80;99.90;;;;;;4985056;28;20057;-78
2024/04/05 08:25:08;;;;;;;16.30;6.07;;;13.80;99.90;;;;;;4988723;28;20061;-77
2024/04/05 08:27:37;;;;;;;16.00;5.80;;;13.80;99.90;;;;;;4985178;28;20414;-78
2024/04/05 08:30:03;;;;;;;13.40;5.57;;;13.90;99.90;;;;;;4967035;28;20042;-78
2024/04/05 08:32:32;;;;;;;17.63;5.80;;;13.90;99.90;;;;;;4967462;28;20053;-78
2024/04/05 08:34:58;;;;;;;14.00;5.45;;;14.00;99.90;;;;;;5000901;28;20053;-78
2024/04/05 08:37:24;;;;;;;13.85;5.82;;;14.00;99.90;;;;;;4995497;28;20034;-78
2024/04/05 08:39:49;;;;;;;15.80;6.05;;;14.00;99.90;;;;;;4959832;28;20105;-79
2024/04/05 08:42:17;;;;;;;13.68;5.53;;;14.10;99.90;;;;;;4988815;28;20042;-79
2024/04/05 08:44:47;;;;;;;15.77;6.32;;;14.10;99.90;;;;;;4983563;28;20042;-79
2024/04/05 08:47:13;;;;;;;14.73;5.85;;;14.10;99.90;;;;;;5008849;28;20054;-79
2024/04/05 08:49:39;;;;;;;18.20;5.32;;;14.10;99.90;;;;;;4985402;28;20042;-78
2024/04/05 08:52:06;;;;;;;14.18;5.82;;;14.20;99.90;;;;;;4990274;28;20042;-80
2024/04/05 08:54:32;;;;;;;17.33;6.22;;;14.20;99.90;;;;;;5002399;28;20060;-78
2024/04/05 08:57:01;;;;;;;11.43;4.60;;;14.20;99.90;;;;;;5007092;28;20170;-79
2024/04/05 08:59:32;;;;;;;14.73;5.55;;;14.20;99.90;;;;;;4980163;28;20117;-79
2024/04/05 09:02:00;;;;;;;15.00;5.38;;;14.20;99.90;;;;;;4983845;28;20046;-80
2024/04/05 09:04:26;;;;;;;12.95;4.80;;;14.10;99.90;;;;;;5009381;28;20034;-79
2024/04/05 09:06:52;;;;;;;18.77;5.43;;;14.10;99.90;;;;;;4978086;28;20108;-79
2024/04/05 09:09:31;;;;;;;14.63;5.22;;;14.10;99.90;;;;;;5009149;28;20121;-78
2024/04/05 09:12:14;;;;;;;15.93;6.07;;;14.00;99.90;;;;;;4960857;28;20053;-79
2024/04/05 09:14:41;;;;;;;12.50;5.45;;;13.90;99.90;;;;;;4961994;28;20406;-79
2024/04/05 09:17:16;;;;;;;15.02;5.93;;;13.80;99.90;;;;;;4976586;28;20136;-79
2024/04/05 09:19:42;;;;;;;16.08;5.93;;;13.70;99.90;;;;;;4993484;28;20050;-79
2024/04/05 09:22:18;;;;;;;13.48;6.03;;;13.60;99.90;;;;;;4982630;28;20050;-79
2024/04/05 09:24:45;;;;;;;17.13;5.35;;;13.60;99.90;;;;;;4966975;28;20513;-79
2024/04/05 09:27:11;;;;;;;15.18;6.28;;;13.50;99.90;;;;;;4972927;28;20049;-80
2024/04/05 09:29:37;;;;;;;15.82;5.50;;;13.50;99.90;;;;;;4963411;28;20133;-80
2024/04/05 09:32:15;;;;;;;13.07;5.55;;;13.50;99.90;;;;;;4965964;28;20058;-79
2024/04/05 09:34:42;;;;;;;11.43;5.65;;;13.50;99.90;;;;;;5010861;28;20455;-78
2024/04/05 09:37:09;;;;;;;15.23;6.00;;;13.50;99.90;;;;;;4994832;28;20037;-79
2024/04/05 09:39:35;;;;;;;14.65;5.93;;;13.40;99.90;;;;;;5020074;28;20080;-79
2024/04/05 09:42:02;;;;;;;14.40;5.93;;;13.50;99.90;;;;;;4984123;28;20451;-79
2024/04/05 09:44:28;;;;;;;14.88;6.43;;;13.50;99.90;;;;;;4970769;28;20463;-78
2024/04/05 09:46:57;;;;;;;19.20;6.25;;;13.40;99.90;;;;;;4987130;28;20038;-79
2024/04/05 09:49:23;;;;;;;13.70;6.13;;;13.40;99.90;;;;;;4973389;28;20037;-80
2024/04/05 09:51:58;;;;;;;20.17;7.30;;;13.40;99.90;;;;;;4984499;28;20554;-80
2024/04/05 09:54:27;;;;;;;17.27;6.35;;;13.40;99.90;;;;;;4983217;28;20047;-79
2024/04/05 09:56:53;;;;;;;17.85;7.20;;;13.30;99.90;;;;;;4983987;28;20129;-79
2024/04/05 09:59:28;;;;;;;17.65;6.72;;;13.30;99.90;;;;;;4985725;28;20133;-78
2024/04/05 10:01:55;;;;;;;18.92;8.40;;;13.30;99.90;;;;;;4991463;28;20120;-78
2024/04/05 10:04:21;;;;;;;19.30;8.70;;;13.20;99.90;;;;;;5001807;28;20045;-79
2024/04/05 10:06:47;;;;;;;17.83;7.68;;;13.30;99.90;;;;;;4969691;28;20053;-79
2024/04/05 10:09:21;;;;;;;17.83;8.23;;;13.20;99.90;;;;;;5002846;28;20034;-80
2024/04/05 10:11:52;;;;;;;17.67;6.97;;;13.20;99.90;;;;;;4993047;28;20045;-78
2024/04/05 10:14:22;;;;;;;15.65;6.82;;;13.20;99.90;;;;;;4983231;28;20085;-80
2024/04/05 10:16:48;;;;;;;14.52;6.50;;;13.10;99.90;;;;;;5019615;28;20068;-81
2024/04/05 10:19:15;;;;;;;19.23;7.82;;;13.20;99.90;;;;;;4986353;28;20141;-81
2024/04/05 10:21:41;;;;;;;18.95;7.38;;;13.20;99.90;;;;;;4970946;28;20050;-82
2024/04/05 10:24:08;;;;;;;15.30;6.97;;;13.30;99.90;;;;;;5024278;28;20042;-82
2024/04/05 10:26:34;;;;;;;17.27;6.75;;;13.30;99.90;;;;;;4988034;28;20038;-82
2024/04/05 10:29:04;;;;;;;18.05;7.45;;;13.20;99.90;;;;;;4976195;28;20042;-81
2024/04/05 10:31:36;;;;;;;16.15;7.00;;;13.30;99.90;;;;;;4975048;28;20042;-81
2024/04/05 10:34:03;;;;;;;17.80;7.05;;;13.30;99.90;;;;;;4969740;28;21092;-82
2024/04/05 10:36:32;;;;;;;12.77;6.93;;;13.30;99.90;;;;;;5016363;28;20137;-81
2024/04/05 10:39:03;;;;;;;14.43;6.63;;;13.30;99.90;;;;;;4969559;28;20038;-81
2024/04/05 10:41:29;;;;;;;19.17;7.32;;;13.40;99.90;;;;;;5003163;28;20662;-81
2024/04/05 10:44:04;;;;;;;17.50;7.80;;;13.30;99.90;;;;;;4981255;28;20061;-82
2024/04/05 10:46:31;;;;;;;14.43;6.35;;;13.40;99.90;;;;;;5014368;28;20058;-82
2024/04/05 10:49:00;;;;;;;16.70;7.13;;;13.40;99.90;;;;;;4968323;28;20459;-82
2024/04/05 10:51:35;;;;;;;15.27;7.25;;;13.40;99.90;;;;;;4985856;28;20141;-83
2024/04/05 10:54:11;;;;;;;17.08;6.70;;;13.40;99.90;;;;;;4980261;28;20461;-82
2024/04/05 10:56:41;;;;;;;15.32;5.85;;;13.50;99.90;;;;;;4964657;28;20450;-83
2024/04/05 10:59:11;;;;;;;16.80;6.33;;;13.60;99.90;;;;;;4995879;28;20125;-82
2024/04/05 11:01:38;;;;;;;16.98;6.60;;;13.70;99.90;;;;;;4985261;28;20045;-83
2024/04/05 11:04:05;;;;;;;15.05;6.60;;;13.70;99.90;;;;;;5005757;28;20053;-82
2024/04/05 11:06:31;;;;;;;13.50;6.65;;;13.80;99.90;;;;;;5006178;28;20042;-82
2024/04/05 11:08:58;;;;;;;12.63;5.88;;;13.80;99.90;;;;;;4973839;28;20042;-84
2024/04/05 11:11:26;;;;;;;15.90;6.97;;;13.80;99.90;;;;;;4970820;28;20137;-82
2024/04/05 11:14:05;;;;;;;14.75;6.60;;;13.90;99.90;;;;;;4987128;28;20405;-82
2024/04/05 11:16:38;;;;;;;13.63;5.53;;;13.90;99.90;;;;;;4972233;28;20049;-82
2024/04/05 11:19:04;;;;;;;13.80;6.10;;;14.00;99.90;;;;;;4987176;28;20038;-82
2024/04/05 11:21:30;;;;;;;12.18;5.13;;;14.00;99.90;;;;;;4974415;28;20048;-81
2024/04/05 11:23:56;;;;;;;13.40;5.60;;;13.90;99.90;;;;;;5014825;28;20522;-82
2024/04/05 11:26:30;;;;;;;11.27;5.55;;;13.90;99.90;;;;;;4990100;28;20125;-82
2024/04/05 11:28:57;;;;;;;13.57;5.97;;;14.00;99.90;;;;;;4983405;28;20129;-83
2024/04/05 11:31:25;;;;;;;12.32;5.10;;;13.90;99.90;;;;;;4973187;28;20044;-82
2024/04/05 11:33:52;;;;;;;10.75;5.20;;;13.90;99.90;;;;;;4986863;28;20061;-82
2024/04/05 11:36:19;;;;;;;12.57;5.25;;;14.00;99.90;;;;;;4984566;28;20034;-82
2024/04/05 11:38:45;;;;;;;13.30;5.55;;;14.00;99.90;;;;;;4979737;28;20050;-81
2024/04/05 11:41:11;;;;;;;11.43;5.07;;;14.00;99.90;;;;;;4971369;28;20220;-82
2024/04/05 11:43:38;;;;;;;8.35;4.82;;;14.00;99.90;;;;;;4997238;28;20649;-83
2024/04/05 11:46:04;;;;;;;11.25;4.65;;;14.10;99.90;;;;;;4988273;28;20042;-81
2024/04/05 11:48:30;;;;;;;10.05;5.03;;;14.00;99.90;;;;;;4983848;28;20048;-81
2024/04/05 11:50:55;;;;;;;14.63;5.38;;;14.10;99.90;;;;;;4972262;28;20041;-82
2024/04/05 11:53:21;;;;;;;10.45;4.57;;;14.00;99.90;;;;;;4985749;28;20117;-81
2024/04/05 11:55:47;;;;;;;12.93;4.72;;;14.10;99.90;;;;;;4966544;28;20185;-81
2024/04/05 11:58:13;;;;;;;8.98;4.75;;;14.10;99.90;;;;;;4989224;28;20147;-82
2024/04/05 12:00:39;;;;;;;8.70;4.55;;;14.10;99.90;;;;;;4971760;28;20224;-80
2024/04/05 12:03:05;;;;;;;10.90;5.18;;;14.10;99.90;;;;;;4972839;28;20061;-82
2024/04/05 12:05:30;;;;;;;8.68;4.65;;;14.10;99.90;;;;;;4984763;28;20041;-81
2024/04/05 12:07:56;;;;;;;11.50;4.93;;;14.20;99.90;;;;;;4987629;28;20046;-82
2024/04/05 12:10:22;;;;;;;9.57;5.00;;;14.10;99.90;;;;;;4970824;28;20042;-81
2024/04/05 12:12:48;;;;;;;11.00;4.43;;;14.10;99.90;;;;;;4971475;28;20491;-81
2024/04/05 12:15:15;;;;;;;10.77;4.93;;;14.10;99.90;;;;;;4973255;28;20038;-81
2024/04/05 12:17:41;;;;;;;8.32;5.32;;;14.10;99.90;;;;;;4968723;28;20494;-80
2024/04/05 12:20:13;;;;;;;10.13;5.07;;;14.00;99.90;;;;;;4969180;28;20046;-80
2024/04/05 12:22:39;;;;;;;11.65;5.68;;;14.00;99.90;;;;;;4986078;28;20057;-81
2024/04/05 12:25:05;;;;;;;10.35;5.35;;;14.00;99.90;;;;;;4981609;28;20042;-81
2024/04/05 12:27:31;;;;;;;10.52;5.30;;;14.00;99.90;;;;;;4971039;28;20160;-82
2024/04/05 12:29:57;;;;;;;10.23;5.05;;;14.00;99.90;;;;;;4970705;28;20129;-81
2024/04/05 12:32:23;;;;;;;13.00;6.25;;;14.00;99.90;;;;;;4969111;28;20463;-80
2024/04/05 12:34:49;;;;;;;10.18;5.20;;;14.00;99.90;;;;;;4981731;28;20557;-82
2024/04/05 12:37:21;;;;;;;10.27;5.35;;;14.00;99.90;;;;;;4967591;28;20042;-81